DATCR ETNL-EBOS
Flight info
| Callsign | DATCR |
|---|---|
| Flight time | N/A |
| Altitude | 40000 |
| Route | TAGOB DCT DOBAK DCT LILSI DCT NIK DCT COA |
| Aircraft | CL60/M-SBDE1E2E3FGHIJ1J4J5J7M3RWXYZ/LB1V1D1 |
Departure
| Time | N/A |
|---|---|
| Airport | Rostock-Laage Airport (ETNL) |
Arrival
| Time | 2026-04-29 13:32 |
|---|---|
| Airport | Ostend-Bruges International Airport (EBOS) |
| Time | Latitude | Longitude | Altitude | Speed | Heading |
|---|---|---|---|---|---|
| 2026-04-29 13:06 | 51.62573 | 4.58559 | 31052 ft | 430 kts | 204° |
| 2026-04-29 13:06 | 51.59705 | 4.56034 | 30542 ft | 425 kts | 204° |
| 2026-04-29 13:06 | 51.57122 | 4.53763 | 30069 ft | 422 kts | 205° |
| 2026-04-29 13:07 | 51.55306 | 4.52168 | 29752 ft | 419 kts | 205° |
| 2026-04-29 13:07 | 51.52274 | 4.49509 | 29181 ft | 415 kts | 205° |
| 2026-04-29 13:07 | 51.49649 | 4.47210 | 28714 ft | 412 kts | 205° |
| 2026-04-29 13:07 | 51.47163 | 4.45037 | 28254 ft | 409 kts | 205° |
| 2026-04-29 13:08 | 51.44676 | 4.42865 | 27813 ft | 405 kts | 205° |
| 2026-04-29 13:08 | 51.42467 | 4.40938 | 27404 ft | 402 kts | 205° |
| 2026-04-29 13:08 | 51.39987 | 4.38775 | 26961 ft | 399 kts | 205° |
| 2026-04-29 13:08 | 51.37576 | 4.36677 | 26526 ft | 395 kts | 205° |
| 2026-04-29 13:09 | 51.35436 | 4.34817 | 26126 ft | 392 kts | 204° |
| 2026-04-29 13:09 | 51.33040 | 4.32737 | 25691 ft | 389 kts | 205° |
| 2026-04-29 13:09 | 51.30902 | 4.30884 | 25315 ft | 386 kts | 205° |
| 2026-04-29 13:09 | 51.28480 | 4.28785 | 24863 ft | 383 kts | 205° |
| 2026-04-29 13:10 | 51.26410 | 4.26994 | 24492 ft | 380 kts | 205° |
| 2026-04-29 13:10 | 51.24003 | 4.24909 | 24055 ft | 377 kts | 206° |
| 2026-04-29 13:10 | 51.21879 | 4.22520 | 23589 ft | 379 kts | 220° |
| 2026-04-29 13:10 | 51.20221 | 4.19388 | 23085 ft | 378 kts | 237° |
| 2026-04-29 13:11 | 51.19156 | 4.15762 | 22630 ft | 374 kts | 252° |
| 2026-04-29 13:11 | 51.18703 | 4.11854 | 21994 ft | 374 kts | 268° |
| 2026-04-29 13:11 | 51.18912 | 4.08089 | 21523 ft | 367 kts | 285° |
| 2026-04-29 13:11 | 51.19607 | 4.04508 | 21186 ft | 358 kts | 292° |
| 2026-04-29 13:12 | 51.20405 | 4.00940 | 20808 ft | 353 kts | 292° |
| 2026-04-29 13:12 | 51.21276 | 3.97013 | 20404 ft | 354 kts | 292° |
| 2026-04-29 13:12 | 51.22069 | 3.93435 | 20029 ft | 352 kts | 292° |
| 2026-04-29 13:12 | 51.22857 | 3.89878 | 19657 ft | 350 kts | 292° |
| 2026-04-29 13:13 | 51.23621 | 3.86423 | 19286 ft | 348 kts | 292° |
| 2026-04-29 13:13 | 51.24422 | 3.82791 | 18907 ft | 346 kts | 292° |
| 2026-04-29 13:13 | 51.25143 | 3.79524 | 18555 ft | 343 kts | 292° |
| 2026-04-29 13:13 | 51.25955 | 3.75836 | 18160 ft | 341 kts | 292° |
| 2026-04-29 13:14 | 51.26709 | 3.72406 | 17821 ft | 340 kts | 292° |
| 2026-04-29 13:14 | 51.27480 | 3.68899 | 17440 ft | 338 kts | 292° |
| 2026-04-29 13:14 | 51.28240 | 3.65435 | 17081 ft | 336 kts | 292° |
| 2026-04-29 13:14 | 51.29002 | 3.61959 | 16709 ft | 335 kts | 292° |
| 2026-04-29 13:15 | 51.29768 | 3.58458 | 16154 ft | 337 kts | 292° |
| 2026-04-29 13:15 | 51.30512 | 3.55051 | 15768 ft | 332 kts | 292° |
| 2026-04-29 13:15 | 51.31243 | 3.51696 | 15389 ft | 329 kts | 292° |
| 2026-04-29 13:15 | 51.31976 | 3.48329 | 15031 ft | 325 kts | 292° |
| 2026-04-29 13:16 | 51.32704 | 3.44981 | 14688 ft | 321 kts | 292° |
| 2026-04-29 13:16 | 51.33423 | 3.41672 | 14328 ft | 317 kts | 292° |
| 2026-04-29 13:16 | 51.34050 | 3.38344 | 13990 ft | 315 kts | 282° |
| 2026-04-29 13:16 | 51.34072 | 3.34944 | 13619 ft | 315 kts | 260° |
| 2026-04-29 13:17 | 51.33447 | 3.31901 | 13248 ft | 312 kts | 241° |
| 2026-04-29 13:17 | 51.32355 | 3.28900 | 12889 ft | 310 kts | 237° |
| 2026-04-29 13:17 | 51.31340 | 3.26188 | 12594 ft | 311 kts | 237° |
| 2026-04-29 13:17 | 51.30208 | 3.23152 | 12208 ft | 310 kts | 237° |
| 2026-04-29 13:18 | 51.29111 | 3.20211 | 11878 ft | 307 kts | 237° |
| 2026-04-29 13:18 | 51.28076 | 3.17435 | 11576 ft | 303 kts | 237° |
| 2026-04-29 13:18 | 51.26981 | 3.14501 | 11199 ft | 300 kts | 237° |
| 2026-04-29 13:18 | 51.26000 | 3.11869 | 10892 ft | 292 kts | 238° |
| 2026-04-29 13:19 | 51.25271 | 3.08923 | 10522 ft | 288 kts | 259° |
| 2026-04-29 13:19 | 51.25210 | 3.05794 | 10016 ft | 287 kts | 280° |
| 2026-04-29 13:19 | 51.25829 | 3.02812 | 9624 ft | 279 kts | 302° |
| 2026-04-29 13:19 | 51.26996 | 3.00392 | 8960 ft | 280 kts | 322° |
| 2026-04-29 13:20 | 51.28511 | 2.98470 | 8401 ft | 276 kts | 321° |
| 2026-04-29 13:20 | 51.29532 | 2.95967 | 8247 ft | 267 kts | 287° |
| 2026-04-29 13:20 | 51.29533 | 2.93063 | 7825 ft | 264 kts | 255° |
| 2026-04-29 13:20 | 51.29076 | 2.90321 | 7513 ft | 258 kts | 253° |
| 2026-04-29 13:21 | 51.28618 | 2.87574 | 7266 ft | 253 kts | 254° |
| 2026-04-29 13:21 | 51.28199 | 2.84859 | 6979 ft | 256 kts | 255° |
| 2026-04-29 13:21 | 51.27777 | 2.82103 | 6690 ft | 256 kts | 255° |
| 2026-04-29 13:21 | 51.27350 | 2.79314 | 6459 ft | 254 kts | 255° |
| 2026-04-29 13:22 | 51.26936 | 2.76599 | 6130 ft | 254 kts | 255° |
| 2026-04-29 13:22 | 51.26532 | 2.73951 | 5861 ft | 251 kts | 255° |
| 2026-04-29 13:22 | 51.26123 | 2.71276 | 5587 ft | 249 kts | 255° |
| 2026-04-29 13:22 | 51.25721 | 2.68634 | 5318 ft | 246 kts | 255° |
| 2026-04-29 13:23 | 51.25318 | 2.65990 | 5047 ft | 243 kts | 255° |
| 2026-04-29 13:23 | 51.24920 | 2.63380 | 4784 ft | 240 kts | 255° |
| 2026-04-29 13:23 | 51.24525 | 2.60795 | 4493 ft | 240 kts | 255° |
| 2026-04-29 13:23 | 51.24072 | 2.58249 | 4243 ft | 232 kts | 244° |
| 2026-04-29 13:24 | 51.23151 | 2.56308 | 3913 ft | 215 kts | 212° |
| 2026-04-29 13:24 | 51.21874 | 2.55342 | 3620 ft | 195 kts | 185° |
| 2026-04-29 13:24 | 51.20587 | 2.55252 | 3290 ft | 180 kts | 164° |
| 2026-04-29 13:24 | 51.19420 | 2.55641 | 3136 ft | 163 kts | 157° |
| 2026-04-29 13:25 | 51.18325 | 2.56056 | 2980 ft | 162 kts | 157° |
| 2026-04-29 13:25 | 51.16236 | 2.56950 | 2676 ft | 146 kts | 140° |
| 2026-04-29 13:25 | 51.15717 | 2.58071 | 2639 ft | 120 kts | 98° |
| 2026-04-29 13:26 | 51.15765 | 2.59227 | 2670 ft | 102 kts | 79° |
| 2026-04-29 13:26 | 51.15922 | 2.60333 | 2674 ft | 101 kts | 79° |
| 2026-04-29 13:26 | 51.16075 | 2.61424 | 2651 ft | 100 kts | 79° |
| 2026-04-29 13:26 | 51.16232 | 2.62516 | 2625 ft | 100 kts | 78° |
| 2026-04-29 13:27 | 51.16399 | 2.63599 | 2599 ft | 100 kts | 78° |
| 2026-04-29 13:27 | 51.16566 | 2.64662 | 2580 ft | 100 kts | 78° |
| 2026-04-29 13:27 | 51.16725 | 2.65760 | 2508 ft | 102 kts | 79° |
| 2026-04-29 13:27 | 51.16865 | 2.66853 | 2370 ft | 99 kts | 79° |
| 2026-04-29 13:28 | 51.17014 | 2.67926 | 2289 ft | 100 kts | 78° |
| 2026-04-29 13:28 | 51.17186 | 2.69000 | 2087 ft | 103 kts | 76° |
| 2026-04-29 13:28 | 51.17382 | 2.70099 | 1947 ft | 101 kts | 75° |
| 2026-04-29 13:28 | 51.17589 | 2.71166 | 1853 ft | 98 kts | 76° |
| 2026-04-29 13:29 | 51.17760 | 2.72261 | 1738 ft | 103 kts | 78° |
| 2026-04-29 13:29 | 51.17902 | 2.73341 | 1614 ft | 99 kts | 78° |
| 2026-04-29 13:29 | 51.18047 | 2.74432 | 1468 ft | 102 kts | 78° |
| 2026-04-29 13:29 | 51.18203 | 2.75546 | 1338 ft | 101 kts | 77° |
| 2026-04-29 13:30 | 51.18366 | 2.76647 | 1185 ft | 101 kts | 77° |
| 2026-04-29 13:30 | 51.18532 | 2.77735 | 1022 ft | 103 kts | 77° |
| 2026-04-29 13:30 | 51.18694 | 2.78833 | 887 ft | 102 kts | 77° |
| 2026-04-29 13:30 | 51.18852 | 2.79937 | 751 ft | 102 kts | 77° |
| 2026-04-29 13:31 | 51.19019 | 2.81042 | 607 ft | 103 kts | 75° |
| 2026-04-29 13:31 | 51.19191 | 2.82165 | 462 ft | 105 kts | 76° |
| 2026-04-29 13:31 | 51.19356 | 2.83286 | 359 ft | 105 kts | 76° |
| 2026-04-29 13:31 | 51.19531 | 2.84431 | 213 ft | 105 kts | 76° |
| 2026-04-29 13:32 | 51.19699 | 2.85550 | 69 ft | 104 kts | 76° |
| 2026-04-29 13:32 | 51.19865 | 2.86649 | 8 ft | 92 kts | 76° |
| 2026-04-29 13:32 | 51.19946 | 2.87202 | 8 ft | 26 kts | 77° |
| 2026-04-29 13:32 | 51.19972 | 2.87371 | 8 ft | 15 kts | 73° |
| 2026-04-29 13:33 | 51.20052 | 2.87485 | 8 ft | 17 kts | 32° |
| 2026-04-29 13:33 | 51.20139 | 2.87568 | 8 ft | 9 kts | 28° |
| 2026-04-29 13:33 | 51.20169 | 2.87552 | 8 ft | 8 kts | 259° |
| 2026-04-29 13:33 | 51.20150 | 2.87432 | 8 ft | 13 kts | 256° |
| 2026-04-29 13:34 | 51.20126 | 2.87271 | 8 ft | 14 kts | 256° |
| 2026-04-29 13:34 | 51.20100 | 2.87100 | 8 ft | 17 kts | 257° |
| 2026-04-29 13:34 | 51.20074 | 2.86924 | 8 ft | 13 kts | 256° |
| 2026-04-29 13:34 | 51.20055 | 2.86805 | 8 ft | 11 kts | 256° |
| 2026-04-29 13:35 | 51.20039 | 2.86702 | 8 ft | 11 kts | 255° |
| 2026-04-29 13:35 | 51.20016 | 2.86548 | 8 ft | 17 kts | 257° |
| 2026-04-29 13:35 | 51.19985 | 2.86339 | 8 ft | 19 kts | 257° |
| 2026-04-29 13:35 | 51.19959 | 2.86166 | 8 ft | 17 kts | 256° |
| 2026-04-29 13:36 | 51.19935 | 2.86004 | 8 ft | 14 kts | 256° |
| 2026-04-29 13:36 | 51.19909 | 2.85833 | 8 ft | 16 kts | 257° |
| 2026-04-29 13:36 | 51.19885 | 2.85670 | 8 ft | 11 kts | 256° |
| 2026-04-29 13:36 | 51.19890 | 2.85608 | 8 ft | 6 kts | 342° |
| 2026-04-29 13:37 | 51.19925 | 2.85579 | 8 ft | 5 kts | 320° |
| 2026-04-29 13:37 | 51.19933 | 2.85554 | 8 ft | 1 kts | 225° |
| 2026-04-29 13:37 | 51.19928 | 2.85545 | 8 ft | 1 kts | 229° |
| 2026-04-29 13:37 | 51.19926 | 2.85542 | 8 ft | 0 kts | 229° |